sensor_id;sensor_type;location;lat;lon;timestamp;pressure;altitude;pressure_sealevel;temperature;humidity
49915;BME280;35806;47.958;13.158;2024-02-28T00:01:34;94404.96;;;1.94;58.27
49915;BME280;35806;47.958;13.158;2024-02-28T00:04:01;94405.52;;;1.76;58.11
49915;BME280;35806;47.958;13.158;2024-02-28T00:06:29;94404.37;;;1.89;57.84
49915;BME280;35806;47.958;13.158;2024-02-28T00:08:57;94402.26;;;2.01;57.98
49915;BME280;35806;47.958;13.158;2024-02-28T00:11:25;94400.24;;;1.67;58.22
49915;BME280;35806;47.958;13.158;2024-02-28T00:13:53;94401.50;;;1.70;58.00
49915;BME280;35806;47.958;13.158;2024-02-28T00:16:26;94406.89;;;1.05;58.35
49915;BME280;35806;47.958;13.158;2024-02-28T00:19:03;94410.13;;;1.32;58.15
49915;BME280;35806;47.958;13.158;2024-02-28T00:21:37;94414.84;;;1.65;57.82
49915;BME280;35806;47.958;13.158;2024-02-28T00:24:05;94414.27;;;2.40;55.77
49915;BME280;35806;47.958;13.158;2024-02-28T00:26:32;94416.30;;;1.23;58.84
49915;BME280;35806;47.958;13.158;2024-02-28T00:29:00;94416.79;;;1.25;59.61
49915;BME280;35806;47.958;13.158;2024-02-28T00:31:27;94415.40;;;1.84;58.23
49915;BME280;35806;47.958;13.158;2024-02-28T00:33:55;94416.13;;;1.60;58.53
49915;BME280;35806;47.958;13.158;2024-02-28T00:36:22;94414.38;;;1.40;58.55
49915;BME280;35806;47.958;13.158;2024-02-28T00:38:50;94419.82;;;1.88;58.41
49915;BME280;35806;47.958;13.158;2024-02-28T00:41:23;94425.03;;;1.92;58.27
49915;BME280;35806;47.958;13.158;2024-02-28T00:43:50;94432.80;;;1.63;58.91
49915;BME280;35806;47.958;13.158;2024-02-28T00:46:47;94434.69;;;2.72;56.24
49915;BME280;35806;47.958;13.158;2024-02-28T00:49:15;94438.73;;;2.08;57.47
49915;BME280;35806;47.958;13.158;2024-02-28T00:51:42;94444.14;;;1.75;58.02
49915;BME280;35806;47.958;13.158;2024-02-28T00:54:09;94449.31;;;1.75;58.72
49915;BME280;35806;47.958;13.158;2024-02-28T00:56:41;94448.61;;;2.09;58.77
49915;BME280;35806;47.958;13.158;2024-02-28T00:59:08;94454.36;;;2.35;57.89
49915;BME280;35806;47.958;13.158;2024-02-28T01:01:35;94462.18;;;2.37;56.96
49915;BME280;35806;47.958;13.158;2024-02-28T01:04:02;94467.60;;;2.39;56.96
49915;BME280;35806;47.958;13.158;2024-02-28T01:06:29;94474.39;;;2.79;56.70
49915;BME280;35806;47.958;13.158;2024-02-28T01:08:58;94478.82;;;2.28;57.37
49915;BME280;35806;47.958;13.158;2024-02-28T01:11:26;94476.76;;;2.71;58.18
49915;BME280;35806;47.958;13.158;2024-02-28T01:13:53;94474.90;;;2.23;59.63
49915;BME280;35806;47.958;13.158;2024-02-28T01:16:21;94476.40;;;2.07;59.74
49915;BME280;35806;47.958;13.158;2024-02-28T01:18:48;94475.70;;;2.36;59.37
49915;BME280;35806;47.958;13.158;2024-02-28T01:21:15;94471.72;;;3.23;57.61
49915;BME280;35806;47.958;13.158;2024-02-28T01:23:42;94473.32;;;2.72;58.95
49915;BME280;35806;47.958;13.158;2024-02-28T01:26:09;94472.35;;;3.37;58.60
49915;BME280;35806;47.958;13.158;2024-02-28T01:28:36;94473.59;;;3.14;59.35
49915;BME280;35806;47.958;13.158;2024-02-28T01:31:14;94480.95;;;3.47;59.15
49915;BME280;35806;47.958;13.158;2024-02-28T01:33:41;94484.71;;;3.30;60.24
49915;BME280;35806;47.958;13.158;2024-02-28T01:36:11;94486.08;;;3.10;59.83
49915;BME280;35806;47.958;13.158;2024-02-28T01:38:38;94487.58;;;3.00;60.66
49915;BME280;35806;47.958;13.158;2024-02-28T01:41:06;94490.25;;;3.93;59.48
49915;BME280;35806;47.958;13.158;2024-02-28T01:43:45;94495.09;;;3.93;59.15
49915;BME280;35806;47.958;13.158;2024-02-28T01:46:20;94494.10;;;3.59;59.70
49915;BME280;35806;47.958;13.158;2024-02-28T01:48:49;94491.49;;;4.05;60.04
49915;BME280;35806;47.958;13.158;2024-02-28T01:51:17;94484.95;;;4.63;59.01
49915;BME280;35806;47.958;13.158;2024-02-28T01:54:05;94484.23;;;3.35;60.58
49915;BME280;35806;47.958;13.158;2024-02-28T01:56:34;94489.30;;;3.47;60.69
49915;BME280;35806;47.958;13.158;2024-02-28T01:59:04;94494.66;;;2.58;61.55
49915;BME280;35806;47.958;13.158;2024-02-28T02:01:36;94500.01;;;3.27;59.83
49915;BME280;35806;47.958;13.158;2024-02-28T02:04:23;94503.73;;;4.02;59.37
49915;BME280;35806;47.958;13.158;2024-02-28T02:06:55;94500.38;;;3.83;60.06
49915;BME280;35806;47.958;13.158;2024-02-28T02:09:23;94500.58;;;3.34;60.24
49915;BME280;35806;47.958;13.158;2024-02-28T02:11:50;94501.76;;;4.01;59.78
49915;BME280;35806;47.958;13.158;2024-02-28T02:14:24;94508.32;;;4.52;57.79
49915;BME280;35806;47.958;13.158;2024-02-28T02:16:53;94513.86;;;3.78;59.26
49915;BME280;35806;47.958;13.158;2024-02-28T02:19:27;94513.66;;;3.61;59.52
49915;BME280;35806;47.958;13.158;2024-02-28T02:21:58;94513.82;;;4.29;58.05
49915;BME280;35806;47.958;13.158;2024-02-28T02:24:25;94513.23;;;4.18;58.23
49915;BME280;35806;47.958;13.158;2024-02-28T02:26:57;94513.60;;;4.28;59.44
49915;BME280;35806;47.958;13.158;2024-02-28T02:29:24;94516.70;;;4.05;58.96
49915;BME280;35806;47.958;13.158;2024-02-28T02:31:52;94522.73;;;4.18;58.74
49915;BME280;35806;47.958;13.158;2024-02-28T02:34:25;94513.54;;;3.11;61.93
49915;BME280;35806;47.958;13.158;2024-02-28T02:36:52;94508.00;;;3.69;60.91
49915;BME280;35806;47.958;13.158;2024-02-28T02:39:19;94509.95;;;3.87;59.30
49915;BME280;35806;47.958;13.158;2024-02-28T02:41:46;94511.14;;;4.27;59.60
49915;BME280;35806;47.958;13.158;2024-02-28T02:44:14;94502.56;;;4.35;59.50
49915;BME280;35806;47.958;13.158;2024-02-28T02:46:41;94496.06;;;4.31;60.14
49915;BME280;35806;47.958;13.158;2024-02-28T02:49:09;94494.30;;;4.40;59.29
49915;BME280;35806;47.958;13.158;2024-02-28T02:51:36;94491.40;;;3.88;59.48
49915;BME280;35806;47.958;13.158;2024-02-28T02:54:04;94491.91;;;4.05;59.87
49915;BME280;35806;47.958;13.158;2024-02-28T02:56:31;94494.57;;;4.79;58.42
49915;BME280;35806;47.958;13.158;2024-02-28T02:58:59;94497.76;;;4.58;58.18
49915;BME280;35806;47.958;13.158;2024-02-28T03:01:26;94499.19;;;4.36;59.12
49915;BME280;35806;47.958;13.158;2024-02-28T03:03:54;94497.66;;;4.21;59.72
49915;BME280;35806;47.958;13.158;2024-02-28T03:06:22;94504.86;;;4.18;59.00
49915;BME280;35806;47.958;13.158;2024-02-28T03:08:49;94511.01;;;4.84;57.27
49915;BME280;35806;47.958;13.158;2024-02-28T03:11:22;94516.31;;;3.34;61.25
49915;BME280;35806;47.958;13.158;2024-02-28T03:13:50;94524.27;;;4.50;59.25
49915;BME280;35806;47.958;13.158;2024-02-28T03:16:41;94530.76;;;4.37;59.63
49915;BME280;35806;47.958;13.158;2024-02-28T03:19:14;94534.24;;;4.75;59.16
49915;BME280;35806;47.958;13.158;2024-02-28T03:21:42;94530.98;;;4.11;59.26
49915;BME280;35806;47.958;13.158;2024-02-28T03:24:09;94517.66;;;5.27;56.39
49915;BME280;35806;47.958;13.158;2024-02-28T03:26:37;94516.49;;;4.44;57.83
49915;BME280;35806;47.958;13.158;2024-02-28T03:29:04;94532.74;;;4.83;57.25
49915;BME280;35806;47.958;13.158;2024-02-28T03:31:32;94540.22;;;4.28;57.80
49915;BME280;35806;47.958;13.158;2024-02-28T03:34:00;94537.65;;;4.20;58.26
49915;BME280;35806;47.958;13.158;2024-02-28T03:36:32;94536.89;;;4.33;57.48
49915;BME280;35806;47.958;13.158;2024-02-28T03:39:00;94539.52;;;4.61;57.14
49915;BME280;35806;47.958;13.158;2024-02-28T03:41:27;94538.75;;;5.51;55.57
49915;BME280;35806;47.958;13.158;2024-02-28T03:43:55;94545.21;;;4.59;57.54
49915;BME280;35806;47.958;13.158;2024-02-28T03:46:23;94547.55;;;3.96;58.58
49915;BME280;35806;47.958;13.158;2024-02-28T03:49:33;94550.24;;;5.43;57.28
49915;BME280;35806;47.958;13.158;2024-02-28T03:52:01;94552.58;;;4.98;57.71
49915;BME280;35806;47.958;13.158;2024-02-28T03:54:28;94553.77;;;4.68;57.77
49915;BME280;35806;47.958;13.158;2024-02-28T03:56:55;94550.90;;;4.35;60.18
49915;BME280;35806;47.958;13.158;2024-02-28T03:59:23;94552.68;;;3.54;61.23
49915;BME280;35806;47.958;13.158;2024-02-28T04:01:50;94557.79;;;3.85;61.57
49915;BME280;35806;47.958;13.158;2024-02-28T04:04:19;94558.23;;;3.94;60.88
49915;BME280;35806;47.958;13.158;2024-02-28T04:06:46;94563.08;;;4.84;59.02
49915;BME280;35806;47.958;13.158;2024-02-28T04:09:14;94566.70;;;5.06;58.73
49915;BME280;35806;47.958;13.158;2024-02-28T04:11:42;94569.83;;;4.96;58.69
49915;BME280;35806;47.958;13.158;2024-02-28T04:14:15;94572.13;;;5.21;58.23
49915;BME280;35806;47.958;13.158;2024-02-28T04:16:42;94574.64;;;4.31;59.10
49915;BME280;35806;47.958;13.158;2024-02-28T04:19:09;94575.40;;;5.11;58.30
49915;BME280;35806;47.958;13.158;2024-02-28T04:21:37;94581.05;;;5.76;56.17
49915;BME280;35806;47.958;13.158;2024-02-28T04:24:06;94586.29;;;4.65;58.70
49915;BME280;35806;47.958;13.158;2024-02-28T04:26:34;94585.37;;;4.18;59.24
49915;BME280;35806;47.958;13.158;2024-02-28T04:29:01;94585.19;;;5.08;57.43
49915;BME280;35806;47.958;13.158;2024-02-28T04:31:29;94586.04;;;4.60;58.24
49915;BME280;35806;47.958;13.158;2024-02-28T04:34:10;94585.43;;;4.45;58.81
49915;BME280;35806;47.958;13.158;2024-02-28T04:36:45;94588.59;;;4.70;59.03
49915;BME280;35806;47.958;13.158;2024-02-28T04:39:12;94588.17;;;4.89;57.73
49915;BME280;35806;47.958;13.158;2024-02-28T04:41:39;94588.41;;;3.73;60.67
49915;BME280;35806;47.958;13.158;2024-02-28T04:44:07;94586.81;;;4.73;59.03
49915;BME280;35806;47.958;13.158;2024-02-28T04:46:34;94590.04;;;4.03;60.47
49915;BME280;35806;47.958;13.158;2024-02-28T04:49:04;94593.04;;;4.34;59.02
49915;BME280;35806;47.958;13.158;2024-02-28T04:51:31;94594.73;;;4.45;58.56
49915;BME280;35806;47.958;13.158;2024-02-28T04:53:58;94593.28;;;4.49;58.43
49915;BME280;35806;47.958;13.158;2024-02-28T04:56:25;94595.44;;;4.42;58.05
49915;BME280;35806;47.958;13.158;2024-02-28T04:59:00;94596.91;;;4.84;57.68
49915;BME280;35806;47.958;13.158;2024-02-28T05:01:33;94599.38;;;4.31;58.77
49915;BME280;35806;47.958;13.158;2024-02-28T05:04:02;94604.19;;;4.77;57.77
49915;BME280;35806;47.958;13.158;2024-02-28T05:06:30;94602.47;;;4.24;59.26
49915;BME280;35806;47.958;13.158;2024-02-28T05:08:57;94608.44;;;4.92;58.57
49915;BME280;35806;47.958;13.158;2024-02-28T05:11:24;94614.45;;;4.78;58.65
49915;BME280;35806;47.958;13.158;2024-02-28T05:13:52;94615.46;;;4.22;61.04
49915;BME280;35806;47.958;13.158;2024-02-28T05:16:19;94617.87;;;3.33;62.44
49915;BME280;35806;47.958;13.158;2024-02-28T05:19:37;94616.58;;;5.33;58.70
49915;BME280;35806;47.958;13.158;2024-02-28T05:22:04;94622.41;;;4.12;59.73
49915;BME280;35806;47.958;13.158;2024-02-28T05:24:36;94620.85;;;3.72;60.58
49915;BME280;35806;47.958;13.158;2024-02-28T05:27:03;94627.80;;;4.11;60.64
49915;BME280;35806;47.958;13.158;2024-02-28T05:29:36;94636.28;;;4.70;58.51
49915;BME280;35806;47.958;13.158;2024-02-28T05:32:04;94638.32;;;4.28;60.47
49915;BME280;35806;47.958;13.158;2024-02-28T05:34:31;94635.68;;;3.92;60.45
49915;BME280;35806;47.958;13.158;2024-02-28T05:36:59;94636.99;;;4.05;60.55
49915;BME280;35806;47.958;13.158;2024-02-28T05:39:26;94637.93;;;3.57;60.87
49915;BME280;35806;47.958;13.158;2024-02-28T05:41:55;94648.50;;;3.78;60.19
49915;BME280;35806;47.958;13.158;2024-02-28T05:44:22;94650.94;;;4.12;60.44
49915;BME280;35806;47.958;13.158;2024-02-28T05:46:51;94653.93;;;4.25;60.50
49915;BME280;35806;47.958;13.158;2024-02-28T05:49:21;94663.29;;;3.67;61.37
49915;BME280;35806;47.958;13.158;2024-02-28T05:51:47;94667.59;;;3.10;63.18
49915;BME280;35806;47.958;13.158;2024-02-28T05:54:29;94666.16;;;3.56;62.15
49915;BME280;35806;47.958;13.158;2024-02-28T05:56:56;94665.39;;;4.29;60.51
49915;BME280;35806;47.958;13.158;2024-02-28T05:59:23;94667.14;;;3.26;61.26
49915;BME280;35806;47.958;13.158;2024-02-28T06:01:50;94674.82;;;3.44;62.21
49915;BME280;35806;47.958;13.158;2024-02-28T06:04:18;94678.43;;;3.94;61.34
49915;BME280;35806;47.958;13.158;2024-02-28T06:06:45;94681.67;;;4.07;61.20
49915;BME280;35806;47.958;13.158;2024-02-28T06:09:13;94683.45;;;4.64;60.10
49915;BME280;35806;47.958;13.158;2024-02-28T06:11:40;94685.97;;;4.94;59.41
49915;BME280;35806;47.958;13.158;2024-02-28T06:14:07;94688.82;;;4.10;60.76
49915;BME280;35806;47.958;13.158;2024-02-28T06:16:35;94693.87;;;5.51;57.35
49915;BME280;35806;47.958;13.158;2024-02-28T06:19:07;94699.18;;;4.92;58.00
49915;BME280;35806;47.958;13.158;2024-02-28T06:21:34;94702.97;;;5.62;56.80
49915;BME280;35806;47.958;13.158;2024-02-28T06:24:02;94703.65;;;5.55;56.82
49915;BME280;35806;47.958;13.158;2024-02-28T06:26:29;94700.04;;;4.86;57.50
49915;BME280;35806;47.958;13.158;2024-02-28T06:28:56;94701.54;;;5.01;57.61
49915;BME280;35806;47.958;13.158;2024-02-28T06:31:23;94707.04;;;4.37;58.31
49915;BME280;35806;47.958;13.158;2024-02-28T06:33:56;94706.48;;;4.65;59.57
49915;BME280;35806;47.958;13.158;2024-02-28T06:36:23;94710.84;;;2.99;62.46
49915;BME280;35806;47.958;13.158;2024-02-28T06:38:50;94720.07;;;2.75;64.71
49915;BME280;35806;47.958;13.158;2024-02-28T06:41:19;94720.23;;;4.62;60.60
49915;BME280;35806;47.958;13.158;2024-02-28T06:43:46;94719.75;;;4.45;60.53
49915;BME280;35806;47.958;13.158;2024-02-28T06:46:14;94725.13;;;4.90;59.50
49915;BME280;35806;47.958;13.158;2024-02-28T06:48:40;94724.75;;;5.12;58.41
49915;BME280;35806;47.958;13.158;2024-02-28T06:51:09;94726.20;;;5.86;56.96
49915;BME280;35806;47.958;13.158;2024-02-28T06:53:37;94730.78;;;5.06;58.55
49915;BME280;35806;47.958;13.158;2024-02-28T06:56:05;94732.76;;;6.01;56.98
49915;BME280;35806;47.958;13.158;2024-02-28T06:58:31;94737.77;;;5.56;56.57
49915;BME280;35806;47.958;13.158;2024-02-28T07:00:58;94739.33;;;5.72;57.17
49915;BME280;35806;47.958;13.158;2024-02-28T07:03:25;94740.68;;;6.09;55.84
49915;BME280;35806;47.958;13.158;2024-02-28T07:05:53;94749.03;;;6.62;54.05
49915;BME280;35806;47.958;13.158;2024-02-28T07:08:25;94754.38;;;5.60;55.60
49915;BME280;35806;47.958;13.158;2024-02-28T07:10:52;94755.12;;;5.15;57.65
49915;BME280;35806;47.958;13.158;2024-02-28T07:13:24;94761.49;;;5.63;56.40
49915;BME280;35806;47.958;13.158;2024-02-28T07:15:51;94763.94;;;5.91;56.45
49915;BME280;35806;47.958;13.158;2024-02-28T07:18:24;94766.77;;;5.59;56.41
49915;BME280;35806;47.958;13.158;2024-02-28T07:20:51;94772.03;;;4.53;59.62
49915;BME280;35806;47.958;13.158;2024-02-28T07:23:39;94773.51;;;3.50;64.41
49915;BME280;35806;47.958;13.158;2024-02-28T07:26:08;94778.90;;;2.59;67.39
49915;BME280;35806;47.958;13.158;2024-02-28T07:28:40;94780.36;;;3.31;65.55
49915;BME280;35806;47.958;13.158;2024-02-28T07:31:14;94781.24;;;3.72;65.13
49915;BME280;35806;47.958;13.158;2024-02-28T07:33:41;94781.00;;;4.58;62.22
49915;BME280;35806;47.958;13.158;2024-02-28T07:36:09;94788.11;;;4.92;61.31
49915;BME280;35806;47.958;13.158;2024-02-28T07:38:37;94791.49;;;4.25;61.52
49915;BME280;35806;47.958;13.158;2024-02-28T07:41:04;94792.82;;;5.06;60.23
49915;BME280;35806;47.958;13.158;2024-02-28T07:43:32;94794.37;;;5.52;58.81
49915;BME280;35806;47.958;13.158;2024-02-28T07:45:59;94798.24;;;6.17;56.92
49915;BME280;35806;47.958;13.158;2024-02-28T07:48:26;94801.26;;;6.29;55.74
49915;BME280;35806;47.958;13.158;2024-02-28T07:50:54;94802.95;;;5.55;58.02
49915;BME280;35806;47.958;13.158;2024-02-28T07:53:26;94803.79;;;5.54;58.08
49915;BME280;35806;47.958;13.158;2024-02-28T07:55:53;94809.35;;;6.13;57.21
49915;BME280;35806;47.958;13.158;2024-02-28T07:58:24;94811.58;;;5.80;57.12
49915;BME280;35806;47.958;13.158;2024-02-28T08:00:51;94811.90;;;5.50;58.28
49915;BME280;35806;47.958;13.158;2024-02-28T08:03:21;94812.66;;;5.76;58.84
49915;BME280;35806;47.958;13.158;2024-02-28T08:05:48;94818.25;;;5.62;58.39
49915;BME280;35806;47.958;13.158;2024-02-28T08:08:19;94818.13;;;5.84;58.03
49915;BME280;35806;47.958;13.158;2024-02-28T08:10:47;94820.90;;;5.53;58.89
49915;BME280;35806;47.958;13.158;2024-02-28T08:13:15;94822.34;;;5.73;58.50
49915;BME280;35806;47.958;13.158;2024-02-28T08:15:42;94819.82;;;5.70;57.90
49915;BME280;35806;47.958;13.158;2024-02-28T08:18:10;94818.80;;;6.73;55.81
49915;BME280;35806;47.958;13.158;2024-02-28T08:20:37;94819.04;;;6.22;56.21
49915;BME280;35806;47.958;13.158;2024-02-28T08:23:05;94818.84;;;6.40;56.69
49915;BME280;35806;47.958;13.158;2024-02-28T08:25:33;94818.17;;;5.75;56.85
49915;BME280;35806;47.958;13.158;2024-02-28T08:28:00;94817.15;;;7.46;54.01
49915;BME280;35806;47.958;13.158;2024-02-28T08:30:27;94819.16;;;7.15;54.08
49915;BME280;35806;47.958;13.158;2024-02-28T08:32:55;94824.03;;;7.39;53.81
49915;BME280;35806;47.958;13.158;2024-02-28T08:35:42;94828.31;;;7.49;51.82
49915;BME280;35806;47.958;13.158;2024-02-28T08:38:14;94837.40;;;6.32;55.60
49915;BME280;35806;47.958;13.158;2024-02-28T08:40:42;94836.16;;;6.97;54.83
49915;BME280;35806;47.958;13.158;2024-02-28T08:43:09;94842.33;;;6.30;56.29
49915;BME280;35806;47.958;13.158;2024-02-28T08:45:48;94843.69;;;6.80;55.08
49915;BME280;35806;47.958;13.158;2024-02-28T08:48:17;94848.28;;;7.12;53.62
49915;BME280;35806;47.958;13.158;2024-02-28T08:50:44;94852.16;;;6.85;54.87
49915;BME280;35806;47.958;13.158;2024-02-28T08:53:12;94853.58;;;6.76;54.59
49915;BME280;35806;47.958;13.158;2024-02-28T08:55:39;94855.01;;;6.60;55.21
49915;BME280;35806;47.958;13.158;2024-02-28T08:58:06;94857.84;;;5.64;56.95
49915;BME280;35806;47.958;13.158;2024-02-28T09:00:34;94856.01;;;6.43;55.86
49915;BME280;35806;47.958;13.158;2024-02-28T09:03:08;94855.87;;;6.43;57.06
49915;BME280;35806;47.958;13.158;2024-02-28T09:22:22;94862.35;;;6.23;57.68
49915;BME280;35806;47.958;13.158;2024-02-28T09:24:48;94860.69;;;3.73;60.45
49915;BME280;35806;47.958;13.158;2024-02-28T09:27:15;94863.37;;;2.82;63.75
49915;BME280;35806;47.958;13.158;2024-02-28T09:29:42;94862.68;;;3.71;65.64
49915;BME280;35806;47.958;13.158;2024-02-28T09:32:09;94864.46;;;3.93;66.30
49915;BME280;35806;47.958;13.158;2024-02-28T09:34:37;94867.12;;;3.68;66.46
49915;BME280;35806;47.958;13.158;2024-02-28T09:37:05;94864.85;;;4.45;64.12
49915;BME280;35806;47.958;13.158;2024-02-28T09:39:32;94865.12;;;3.29;67.72
49915;BME280;35806;47.958;13.158;2024-02-28T09:42:00;94865.83;;;3.31;67.65
49915;BME280;35806;47.958;13.158;2024-02-28T09:44:29;94871.38;;;2.95;69.86
49915;BME280;35806;47.958;13.158;2024-02-28T09:46:56;94875.95;;;2.54;71.00
49915;BME280;35806;47.958;13.158;2024-02-28T09:49:25;94879.04;;;3.60;67.42
49915;BME280;35806;47.958;13.158;2024-02-28T09:51:53;94881.74;;;3.30;69.61
49915;BME280;35806;47.958;13.158;2024-02-28T09:54:21;94883.06;;;3.67;67.87
49915;BME280;35806;47.958;13.158;2024-02-28T09:56:48;94883.41;;;3.35;68.61
49915;BME280;35806;47.958;13.158;2024-02-28T09:59:18;94882.31;;;3.51;69.45
49915;BME280;35806;47.958;13.158;2024-02-28T10:01:56;94885.45;;;3.98;67.51
49915;BME280;35806;47.958;13.158;2024-02-28T10:04:24;94890.35;;;2.55;69.58
49915;BME280;35806;47.958;13.158;2024-02-28T10:06:53;94895.13;;;3.43;70.58
49915;BME280;35806;47.958;13.158;2024-02-28T10:09:21;94899.96;;;2.53;71.53
49915;BME280;35806;47.958;13.158;2024-02-28T10:11:49;94903.38;;;3.12;70.94
49915;BME280;35806;47.958;13.158;2024-02-28T10:14:23;94903.71;;;3.57;70.39
49915;BME280;35806;47.958;13.158;2024-02-28T10:16:51;94903.84;;;4.75;66.08
49915;BME280;35806;47.958;13.158;2024-02-28T10:19:19;94910.89;;;4.78;65.41
49915;BME280;35806;47.958;13.158;2024-02-28T10:21:46;94914.82;;;3.97;66.93
49915;BME280;35806;47.958;13.158;2024-02-28T10:24:14;94917.23;;;2.35;72.01
49915;BME280;35806;47.958;13.158;2024-02-28T10:26:43;94913.94;;;3.71;67.97
49915;BME280;35806;47.958;13.158;2024-02-28T10:29:11;94918.59;;;4.19;66.82
49915;BME280;35806;47.958;13.158;2024-02-28T10:31:39;94917.64;;;4.08;67.27
49915;BME280;35806;47.958;13.158;2024-02-28T10:34:07;94921.13;;;3.71;68.73
49915;BME280;35806;47.958;13.158;2024-02-28T10:36:36;94918.97;;;3.83;67.03
49915;BME280;35806;47.958;13.158;2024-02-28T10:39:04;94920.51;;;4.17;66.35
49915;BME280;35806;47.958;13.158;2024-02-28T10:41:32;94918.82;;;4.05;66.41
49915;BME280;35806;47.958;13.158;2024-02-28T10:44:01;94919.86;;;5.21;63.41
49915;BME280;35806;47.958;13.158;2024-02-28T10:46:29;94915.31;;;4.33;65.10
49915;BME280;35806;47.958;13.158;2024-02-28T10:48:57;94915.38;;;4.62;64.10
49915;BME280;35806;47.958;13.158;2024-02-28T10:51:25;94914.18;;;4.26;65.32
49915;BME280;35806;47.958;13.158;2024-02-28T10:54:01;94911.61;;;5.39;63.04
49915;BME280;35806;47.958;13.158;2024-02-28T10:56:30;94911.58;;;5.50;61.32
49915;BME280;35806;47.958;13.158;2024-02-28T10:58:59;94907.04;;;5.04;62.32
49915;BME280;35806;47.958;13.158;2024-02-28T11:01:26;94907.62;;;6.05;58.97
49915;BME280;35806;47.958;13.158;2024-02-28T11:03:55;94910.58;;;6.26;58.31
49915;BME280;35806;47.958;13.158;2024-02-28T11:06:23;94908.71;;;6.04;58.27
49915;BME280;35806;47.958;13.158;2024-02-28T11:08:52;94909.94;;;6.27;58.22
49915;BME280;35806;47.958;13.158;2024-02-28T11:11:20;94908.67;;;6.06;59.06
49915;BME280;35806;47.958;13.158;2024-02-28T11:13:56;94908.33;;;5.91;59.35
49915;BME280;35806;47.958;13.158;2024-02-28T11:16:27;94906.05;;;5.56;58.35
49915;BME280;35806;47.958;13.158;2024-02-28T11:18:55;94903.73;;;5.95;59.39
49915;BME280;35806;47.958;13.158;2024-02-28T11:21:33;94902.81;;;5.60;59.24
49915;BME280;35806;47.958;13.158;2024-02-28T11:24:02;94899.20;;;6.63;57.57
49915;BME280;35806;47.958;13.158;2024-02-28T11:26:29;94898.60;;;6.78;56.86
49915;BME280;35806;47.958;13.158;2024-02-28T11:28:57;94897.92;;;6.47;57.21
49915;BME280;35806;47.958;13.158;2024-02-28T11:31:25;94897.11;;;6.36;56.67
49915;BME280;35806;47.958;13.158;2024-02-28T11:33:52;94896.38;;;6.89;55.86
49915;BME280;35806;47.958;13.158;2024-02-28T11:36:20;94896.04;;;6.11;57.27
49915;BME280;35806;47.958;13.158;2024-02-28T11:38:49;94896.25;;;6.17;57.39
49915;BME280;35806;47.958;13.158;2024-02-28T11:41:25;94897.59;;;5.87;57.90
49915;BME280;35806;47.958;13.158;2024-02-28T11:43:53;94899.94;;;6.69;56.27
49915;BME280;35806;47.958;13.158;2024-02-28T11:46:21;94901.01;;;6.76;55.83
49915;BME280;35806;47.958;13.158;2024-02-28T11:48:53;94898.97;;;7.02;55.36
49915;BME280;35806;47.958;13.158;2024-02-28T11:51:20;94901.28;;;6.54;55.73
49915;BME280;35806;47.958;13.158;2024-02-28T11:53:48;94900.80;;;6.88;55.45
49915;BME280;35806;47.958;13.158;2024-02-28T11:56:15;94903.74;;;6.71;55.39
49915;BME280;35806;47.958;13.158;2024-02-28T11:58:50;94904.12;;;6.70;55.79
49915;BME280;35806;47.958;13.158;2024-02-28T12:01:18;94904.67;;;7.10;56.48
49915;BME280;35806;47.958;13.158;2024-02-28T12:03:46;94907.17;;;6.80;55.78
49915;BME280;35806;47.958;13.158;2024-02-28T12:06:13;94905.19;;;7.46;54.08
49915;BME280;35806;47.958;13.158;2024-02-28T12:08:41;94905.39;;;6.45;56.22
49915;BME280;35806;47.958;13.158;2024-02-28T12:11:08;94906.81;;;6.82;55.41
49915;BME280;35806;47.958;13.158;2024-02-28T12:13:37;94910.12;;;7.30;54.99
49915;BME280;35806;47.958;13.158;2024-02-28T12:16:04;94911.37;;;7.63;54.46
49915;BME280;35806;47.958;13.158;2024-02-28T12:18:31;94912.39;;;7.02;54.72
49915;BME280;35806;47.958;13.158;2024-02-28T12:20:58;94909.55;;;7.32;54.19
49915;BME280;35806;47.958;13.158;2024-02-28T12:23:26;94912.93;;;6.75;54.40
49915;BME280;35806;47.958;13.158;2024-02-28T12:25:53;94910.36;;;5.93;57.52
49915;BME280;35806;47.958;13.158;2024-02-28T12:28:20;94913.96;;;7.12;55.82
49915;BME280;35806;47.958;13.158;2024-02-28T12:30:47;94916.11;;;7.64;53.15
49915;BME280;35806;47.958;13.158;2024-02-28T12:33:15;94911.56;;;8.16;52.25
49915;BME280;35806;47.958;13.158;2024-02-28T12:35:42;94912.89;;;8.14;52.97
49915;BME280;35806;47.958;13.158;2024-02-28T12:38:09;94914.59;;;7.77;53.37
49915;BME280;35806;47.958;13.158;2024-02-28T12:40:36;94911.79;;;8.65;51.04
49915;BME280;35806;47.958;13.158;2024-02-28T12:43:04;94913.73;;;8.14;52.19
49915;BME280;35806;47.958;13.158;2024-02-28T12:45:42;94912.47;;;6.50;54.75
49915;BME280;35806;47.958;13.158;2024-02-28T12:48:10;94916.05;;;7.47;53.96
49915;BME280;35806;47.958;13.158;2024-02-28T12:50:38;94916.94;;;6.09;55.60
49915;BME280;35806;47.958;13.158;2024-02-28T12:53:05;94916.11;;;7.49;53.47
49915;BME280;35806;47.958;13.158;2024-02-28T12:55:33;94914.16;;;7.72;53.26
49915;BME280;35806;47.958;13.158;2024-02-28T12:58:00;94908.85;;;8.19;51.35
49915;BME280;35806;47.958;13.158;2024-02-28T13:00:28;94907.70;;;8.49;51.75
49915;BME280;35806;47.958;13.158;2024-02-28T13:02:56;94913.66;;;7.21;53.06
49915;BME280;35806;47.958;13.158;2024-02-28T13:05:23;94911.17;;;8.16;50.98
49915;BME280;35806;47.958;13.158;2024-02-28T13:07:50;94907.15;;;8.71;50.69
49915;BME280;35806;47.958;13.158;2024-02-28T13:10:23;94910.13;;;8.45;51.01
49915;BME280;35806;47.958;13.158;2024-02-28T13:12:50;94911.01;;;7.82;52.02
49915;BME280;35806;47.958;13.158;2024-02-28T13:15:18;94916.20;;;8.68;51.00
49915;BME280;35806;47.958;13.158;2024-02-28T13:17:45;94915.51;;;8.25;51.21
49915;BME280;35806;47.958;13.158;2024-02-28T13:20:13;94919.41;;;7.55;51.93
49915;BME280;35806;47.958;13.158;2024-02-28T13:22:41;94921.27;;;7.15;53.11
49915;BME280;35806;47.958;13.158;2024-02-28T13:25:08;94923.13;;;7.26;53.57
49915;BME280;35806;47.958;13.158;2024-02-28T13:27:36;94925.79;;;7.01;53.45